createdAt,value
2022-11-25T00:02:15.308Z,1.75
2022-11-25T00:05:02.385Z,1.58
2022-11-25T00:07:52.100Z,1.77
2022-11-25T00:10:39.546Z,1.70
2022-11-25T00:13:26.253Z,1.77
2022-11-25T00:16:16.172Z,2.20
2022-11-25T00:19:04.604Z,1.55
2022-11-25T00:21:51.808Z,1.80
2022-11-25T00:24:38.527Z,1.50
2022-11-25T00:27:25.910Z,2.00
2022-11-25T00:30:13.565Z,2.08
2022-11-25T00:33:00.934Z,1.80
2022-11-25T00:35:48.975Z,1.62
2022-11-25T00:38:36.429Z,1.73
2022-11-25T00:41:41.925Z,2.30
2022-11-25T00:44:40.192Z,2.03
2022-11-25T00:47:29.538Z,1.55
2022-11-25T00:50:17.200Z,2.22
2022-11-25T00:53:05.423Z,1.40
2022-11-25T00:56:10.246Z,1.70
2022-11-25T00:58:57.543Z,2.28
2022-11-25T01:01:44.797Z,2.42
2022-11-25T01:04:31.673Z,3.67
2022-11-25T01:07:19.433Z,3.08
2022-11-25T01:10:09.238Z,3.12
2022-11-25T01:12:58.295Z,3.15
2022-11-25T01:15:45.100Z,3.00
2022-11-25T01:18:33.198Z,2.65
2022-11-25T01:21:22.096Z,3.05
2022-11-25T01:24:09.842Z,3.37
2022-11-25T01:26:58.168Z,2.85
2022-11-25T01:29:45.583Z,3.80
2022-11-25T01:32:33.334Z,3.20
2022-11-25T01:35:20.723Z,3.00
2022-11-25T01:38:07.667Z,2.78
2022-11-25T01:40:55.040Z,3.30
2022-11-25T01:43:43.515Z,3.22
2022-11-25T01:46:37.233Z,3.25
2022-11-25T01:49:30.284Z,3.15
2022-11-25T01:52:21.666Z,2.72
2022-11-25T01:55:13.942Z,3.15
2022-11-25T01:58:07.075Z,2.70
2022-11-25T02:00:55.633Z,2.87
2022-11-25T02:03:46.204Z,2.97
2022-11-25T02:06:39.976Z,2.90
2022-11-25T02:09:28.589Z,3.03
2022-11-25T02:12:17.993Z,2.65
2022-11-25T02:15:06.837Z,3.05
2022-11-25T02:17:55.707Z,2.08
2022-11-25T02:20:43.327Z,2.67
2022-11-25T02:23:41.074Z,2.60
2022-11-25T02:26:30.773Z,2.50
2022-11-25T02:29:17.420Z,2.55
2022-11-25T02:32:05.319Z,2.03
2022-11-25T02:34:52.302Z,2.17
2022-11-25T02:37:39.446Z,2.95
2022-11-25T02:40:28.647Z,2.20
2022-11-25T02:43:18.022Z,1.87
2022-11-25T02:46:07.691Z,1.98
2022-11-25T02:49:12.220Z,3.22
2022-11-25T02:52:00.554Z,2.62
2022-11-25T02:54:49.366Z,2.40
2022-11-25T02:57:36.321Z,1.90
2022-11-25T03:00:24.820Z,2.28
2022-11-25T03:03:12.497Z,1.92
2022-11-25T03:05:59.738Z,2.03
2022-11-25T03:08:46.676Z,2.17
2022-11-25T03:11:51.469Z,2.05
2022-11-25T03:14:39.426Z,1.85
2022-11-25T03:17:28.700Z,2.10
2022-11-25T03:20:16.195Z,2.72
2022-11-25T03:23:03.526Z,2.05
2022-11-25T03:25:50.829Z,2.53
2022-11-25T03:28:37.947Z,2.22
2022-11-25T03:31:24.899Z,2.60
2022-11-25T03:34:13.465Z,1.85
2022-11-25T03:37:00.812Z,2.05
2022-11-25T03:39:48.517Z,2.90
2022-11-25T03:42:35.835Z,1.62
2022-11-25T03:45:23.220Z,2.12
2022-11-25T03:48:10.178Z,2.15
2022-11-25T03:50:59.132Z,2.03
2022-11-25T03:53:47.253Z,1.90
2022-11-25T03:56:34.988Z,1.75
2022-11-25T03:59:22.014Z,1.45
2022-11-25T04:02:10.762Z,1.65
2022-11-25T04:04:58.159Z,1.98
2022-11-25T04:07:46.420Z,1.73
2022-11-25T04:10:33.842Z,1.52
2022-11-25T04:13:19.772Z,2.35
2022-11-25T04:16:06.912Z,1.50
2022-11-25T04:18:53.671Z,1.92
2022-11-25T04:21:41.126Z,1.65
2022-11-25T04:24:29.752Z,1.05
2022-11-25T04:27:20.542Z,2.03
2022-11-25T04:30:10.447Z,1.40
2022-11-25T04:32:58.799Z,1.98
2022-11-25T04:35:46.201Z,2.00
2022-11-25T04:38:33.517Z,1.75
2022-11-25T04:41:22.780Z,1.62
2022-11-25T04:44:10.075Z,2.03
2022-11-25T04:46:57.771Z,1.92
2022-11-25T04:49:45.211Z,2.25
2022-11-25T04:52:35.302Z,1.83
2022-11-25T04:55:30.559Z,1.42
2022-11-25T04:58:40.041Z,2.05
2022-11-25T05:01:27.021Z,1.37
2022-11-25T05:04:14.973Z,1.70
2022-11-25T05:07:02.391Z,2.17
2022-11-25T05:09:49.610Z,1.75
2022-11-25T05:12:37.541Z,1.45
2022-11-25T05:15:26.173Z,1.65
2022-11-25T05:18:13.499Z,1.77
2022-11-25T05:21:03.347Z,1.58
2022-11-25T05:23:55.673Z,1.70
2022-11-25T05:26:42.888Z,1.50
2022-11-25T05:29:29.826Z,1.65
2022-11-25T05:32:18.482Z,1.75
2022-11-25T05:35:06.245Z,1.70
2022-11-25T05:37:53.193Z,1.73
2022-11-25T05:40:41.140Z,2.47
2022-11-25T05:43:28.643Z,1.80
2022-11-25T05:46:16.611Z,1.67
2022-11-25T05:49:05.040Z,2.08
2022-11-25T05:51:52.753Z,2.20
2022-11-25T05:54:40.299Z,2.15
2022-11-25T05:57:29.168Z,2.10
2022-11-25T06:00:16.578Z,2.37
2022-11-25T06:03:04.116Z,1.85
2022-11-25T06:05:52.571Z,2.15
2022-11-25T06:08:40.308Z,1.80
2022-11-25T06:11:27.602Z,1.87
2022-11-25T06:14:14.672Z,1.60
2022-11-25T06:17:01.663Z,1.80
2022-11-25T06:19:48.966Z,2.17
2022-11-25T06:22:37.510Z,1.80
2022-11-25T06:25:24.751Z,1.85
2022-11-25T06:28:13.332Z,1.75
2022-11-25T06:31:06.599Z,1.92
2022-11-25T06:33:54.795Z,2.00
2022-11-25T06:36:42.027Z,1.75
2022-11-25T06:39:30.246Z,1.85
2022-11-25T06:42:17.562Z,2.20
2022-11-25T06:45:04.624Z,1.83
2022-11-25T06:47:51.828Z,2.42
2022-11-25T06:50:38.747Z,2.78
2022-11-25T06:53:26.483Z,2.25
2022-11-25T06:56:16.474Z,2.17
2022-11-25T06:59:04.598Z,1.83
2022-11-25T07:01:51.768Z,2.37
2022-11-25T07:04:40.167Z,1.80
2022-11-25T07:07:27.143Z,2.33
2022-11-25T07:10:14.659Z,2.55
2022-11-25T07:13:02.932Z,2.05
2022-11-25T07:15:50.377Z,2.08
2022-11-25T07:18:38.870Z,1.87
2022-11-25T07:21:26.276Z,2.17
2022-11-25T07:24:14.859Z,2.55
2022-11-25T07:27:02.131Z,2.95
2022-11-25T07:30:10.152Z,2.80
2022-11-25T07:32:58.411Z,2.53
2022-11-25T07:35:45.585Z,1.95
2022-11-25T07:38:33.010Z,2.50
2022-11-25T07:41:21.650Z,1.85
2022-11-25T07:44:09.397Z,2.53
2022-11-25T07:46:59.633Z,1.73
2022-11-25T07:49:46.953Z,1.98
2022-11-25T07:52:33.678Z,2.17
2022-11-25T07:55:20.930Z,2.87
2022-11-25T07:58:07.837Z,1.77
2022-11-25T08:00:55.171Z,2.47
2022-11-25T08:03:44.556Z,2.15
2022-11-25T08:06:31.374Z,2.25
2022-11-25T08:09:21.771Z,2.35
2022-11-25T08:12:09.246Z,1.87
2022-11-25T08:14:56.428Z,2.78
2022-11-25T08:17:43.219Z,1.92
2022-11-25T08:20:32.002Z,2.70
2022-11-25T08:23:19.120Z,2.10
2022-11-25T08:26:06.908Z,2.17
2022-11-25T08:28:53.915Z,1.80
2022-11-25T08:31:41.329Z,2.47
2022-11-25T08:34:27.889Z,2.17
2022-11-25T08:37:17.198Z,1.90
2022-11-25T08:40:04.849Z,1.98
2022-11-25T08:42:52.273Z,2.62
2022-11-25T08:45:40.538Z,2.25
2022-11-25T08:48:27.562Z,2.08
2022-11-25T08:51:16.521Z,2.53
2022-11-25T08:54:05.900Z,2.20
2022-11-25T08:56:52.995Z,2.35
2022-11-25T08:59:40.579Z,2.50
2022-11-25T09:02:27.761Z,2.22
2022-11-25T09:05:18.189Z,2.15
2022-11-25T09:08:05.736Z,3.12
2022-11-25T09:10:54.368Z,3.25
2022-11-25T09:13:41.115Z,3.75
2022-11-25T09:16:28.628Z,3.50
2022-11-25T09:19:15.703Z,3.15
2022-11-25T09:22:03.112Z,3.45
2022-11-25T09:24:50.349Z,2.95
2022-11-25T09:27:39.027Z,2.55
2022-11-25T09:30:26.809Z,2.55
2022-11-25T09:33:14.359Z,2.42
2022-11-25T09:36:01.654Z,2.22
2022-11-25T09:38:48.923Z,1.87
2022-11-25T09:42:15.362Z,2.30
2022-11-25T09:45:32.264Z,2.35
2022-11-25T09:48:42.221Z,2.80
2022-11-25T09:51:39.325Z,2.62
2022-11-25T09:54:30.971Z,2.28
2022-11-25T09:57:27.167Z,2.20
2022-11-25T10:00:19.117Z,2.47
2022-11-25T10:03:14.241Z,2.22
2022-11-25T10:06:06.219Z,2.08
2022-11-25T10:08:57.213Z,2.53
2022-11-25T10:11:51.495Z,2.40
2022-11-25T10:14:43.906Z,2.87
2022-11-25T10:17:39.299Z,2.42
2022-11-25T10:20:30.571Z,1.95
2022-11-25T10:23:27.772Z,2.47
2022-11-25T10:26:17.827Z,2.30
2022-11-25T10:29:21.227Z,2.50
2022-11-25T10:32:23.847Z,2.35
2022-11-25T10:35:22.027Z,2.20
2022-11-25T10:38:19.024Z,2.60
2022-11-25T10:41:07.112Z,2.75
2022-11-25T10:43:54.755Z,2.33
2022-11-25T10:47:13.045Z,1.92
2022-11-25T10:50:07.969Z,2.67
2022-11-25T10:53:00.951Z,2.78
2022-11-25T10:56:00.176Z,2.95
2022-11-25T10:58:47.147Z,2.92
2022-11-25T11:01:34.341Z,2.70
2022-11-25T11:04:21.592Z,3.03
2022-11-25T11:07:10.261Z,2.45
2022-11-25T11:10:17.634Z,2.67
2022-11-25T11:13:06.492Z,2.15
2022-11-25T11:15:54.798Z,2.12
2022-11-25T11:18:43.077Z,2.37
2022-11-25T11:21:32.542Z,2.40
2022-11-25T11:24:29.868Z,1.35
2022-11-25T11:27:24.153Z,2.22
2022-11-25T11:30:16.297Z,2.10
2022-11-25T11:33:05.862Z,2.45
2022-11-25T11:35:56.678Z,2.42
2022-11-25T11:38:50.790Z,2.35
2022-11-25T11:41:45.155Z,1.98
2022-11-25T11:44:41.482Z,1.70
2022-11-25T11:47:37.827Z,1.30
2022-11-25T11:50:30.444Z,1.20
2022-11-25T11:53:24.015Z,1.70
2022-11-25T11:56:34.803Z,1.23
2022-11-25T11:59:49.947Z,1.30
2022-11-25T12:02:50.951Z,1.12
2022-11-25T12:05:38.165Z,1.77
2022-11-25T12:08:32.040Z,1.45
2022-11-25T12:11:23.919Z,1.30
2022-11-25T12:14:16.082Z,1.80
2022-11-25T12:17:09.812Z,1.60
2022-11-25T12:20:03.069Z,1.98
2022-11-25T12:22:59.085Z,1.62
2022-11-25T12:25:48.670Z,1.85
2022-11-25T12:28:41.497Z,2.00
2022-11-25T12:31:32.563Z,1.17
2022-11-25T12:34:28.857Z,1.23
2022-11-25T12:37:23.934Z,1.15
2022-11-25T12:40:17.475Z,1.45
2022-11-25T12:43:16.750Z,1.60
2022-11-25T12:46:14.653Z,1.83
2022-11-25T12:49:03.000Z,1.50
2022-11-25T12:52:16.832Z,1.30
2022-11-25T12:55:12.444Z,1.35
2022-11-25T12:58:34.102Z,1.40
2022-11-25T13:01:57.011Z,1.50
2022-11-25T13:05:40.212Z,1.50
2022-11-25T13:08:52.684Z,1.30
2022-11-25T13:12:07.215Z,1.08
2022-11-25T13:15:19.453Z,1.27
2022-11-25T13:18:14.222Z,1.50
2022-11-25T13:21:08.660Z,1.37
2022-11-25T13:23:58.953Z,1.30
2022-11-25T13:26:50.806Z,1.77
2022-11-25T13:30:03.257Z,1.35
2022-11-25T13:32:51.997Z,1.33
2022-11-25T13:35:49.238Z,1.65
2022-11-25T13:38:39.048Z,1.60
2022-11-25T13:41:37.307Z,1.50
2022-11-25T13:44:32.238Z,1.40
2022-11-25T13:47:34.159Z,1.58
2022-11-25T13:50:28.957Z,1.75
2022-11-25T13:53:33.880Z,1.23
2022-11-25T13:56:30.776Z,2.33
2022-11-25T13:59:37.187Z,1.33
2022-11-25T14:02:49.576Z,1.50
2022-11-25T14:05:59.505Z,1.40
2022-11-25T14:08:56.474Z,1.60
2022-11-25T14:12:08.867Z,1.40
2022-11-25T14:15:12.741Z,1.35
2022-11-25T14:19:12.067Z,1.55
2022-11-25T14:22:07.736Z,1.65
2022-11-25T14:25:01.825Z,1.33
2022-11-25T14:28:03.466Z,1.50
2022-11-25T14:30:54.241Z,1.50
2022-11-25T14:33:49.750Z,1.65
2022-11-25T14:36:41.948Z,1.95
2022-11-25T14:39:35.230Z,2.28
2022-11-25T14:42:24.327Z,1.85
2022-11-25T14:45:24.207Z,1.77
2022-11-25T14:48:15.814Z,1.80
2022-11-25T14:51:06.884Z,1.90
2022-11-25T14:53:54.712Z,1.33
2022-11-25T14:56:41.915Z,1.70
2022-11-25T14:59:29.499Z,1.58
2022-11-25T15:02:30.638Z,1.50
2022-11-25T15:05:20.559Z,1.80
2022-11-25T15:08:12.283Z,1.55
2022-11-25T15:11:02.406Z,1.80
2022-11-25T15:13:55.826Z,1.60
2022-11-25T15:16:43.907Z,1.85
2022-11-25T15:19:36.077Z,1.25
2022-11-25T15:22:24.683Z,1.45
2022-11-25T15:25:15.962Z,1.60
2022-11-25T15:28:03.073Z,1.58
2022-11-25T15:30:57.728Z,1.65
2022-11-25T15:33:45.418Z,1.62
2022-11-25T15:36:33.773Z,1.25
2022-11-25T15:39:29.518Z,1.98
2022-11-25T15:42:20.680Z,1.62
2022-11-25T15:45:20.915Z,1.87
2022-11-25T15:48:08.214Z,1.55
2022-11-25T15:51:02.884Z,1.85
2022-11-25T15:53:55.532Z,1.90
2022-11-25T15:56:48.917Z,1.52
2022-11-25T15:59:51.259Z,1.40
2022-11-25T16:02:50.378Z,1.73
2022-11-25T16:05:38.654Z,1.92
2022-11-25T16:08:37.324Z,1.90
2022-11-25T16:11:29.255Z,1.73
2022-11-25T16:14:25.084Z,2.42
2022-11-25T16:17:13.664Z,1.98
2022-11-25T16:20:00.623Z,2.22
2022-11-25T16:22:48.264Z,1.85
2022-11-25T16:25:35.001Z,2.05
2022-11-25T16:28:25.371Z,2.15
2022-11-25T16:31:17.297Z,2.25
2022-11-25T16:34:14.383Z,2.17
2022-11-25T16:37:01.084Z,1.48
2022-11-25T16:39:48.009Z,2.50
2022-11-25T16:42:35.203Z,2.40
2022-11-25T16:45:26.077Z,2.55
2022-11-25T16:48:17.266Z,2.37
2022-11-25T16:51:06.267Z,1.98
2022-11-25T16:53:53.220Z,2.20
2022-11-25T16:56:42.899Z,2.42
2022-11-25T16:59:33.846Z,2.87
2022-11-25T17:02:23.463Z,2.60
2022-11-25T17:05:18.192Z,2.20
2022-11-25T17:08:05.847Z,2.22
2022-11-25T17:10:56.285Z,2.62
2022-11-25T17:13:45.746Z,2.10
2022-11-25T17:16:32.815Z,2.45
2022-11-25T17:19:21.254Z,2.28
2022-11-25T17:22:17.706Z,1.90
2022-11-25T17:25:05.148Z,2.30
2022-11-25T17:27:53.197Z,2.03
2022-11-25T17:30:40.731Z,2.40
2022-11-25T17:33:27.780Z,2.40
2022-11-25T17:36:16.266Z,2.33
2022-11-25T17:39:03.171Z,2.28
2022-11-25T17:41:51.833Z,2.40
2022-11-25T17:44:40.144Z,2.47
2022-11-25T17:47:27.587Z,2.33
2022-11-25T17:50:21.181Z,2.65
2022-11-25T17:53:10.355Z,2.12
2022-11-25T17:55:57.263Z,2.08
2022-11-25T17:58:44.514Z,2.60
2022-11-25T18:01:31.646Z,2.92
2022-11-25T18:04:23.438Z,2.37
2022-11-25T18:07:11.735Z,2.62
2022-11-25T18:10:00.229Z,2.42
2022-11-25T18:12:50.002Z,2.30
2022-11-25T18:15:38.539Z,2.50
2022-11-25T18:18:26.484Z,2.20
2022-11-25T18:21:14.131Z,1.87
2022-11-25T18:24:00.742Z,2.72
2022-11-25T18:26:53.014Z,2.60
2022-11-25T18:29:40.110Z,2.87
2022-11-25T18:32:27.883Z,2.10
2022-11-25T18:35:20.899Z,2.58
2022-11-25T18:38:08.307Z,2.90
2022-11-25T18:40:56.061Z,2.67
2022-11-25T18:43:45.124Z,3.05
2022-11-25T18:46:37.334Z,2.55
2022-11-25T18:49:24.860Z,2.75
2022-11-25T18:52:18.128Z,3.05
2022-11-25T18:55:07.148Z,3.12
2022-11-25T18:57:57.596Z,3.08
2022-11-25T19:00:53.311Z,2.85
2022-11-25T19:03:47.837Z,3.15
2022-11-25T19:06:36.468Z,2.97
2022-11-25T19:09:27.717Z,2.50
2022-11-25T19:12:20.666Z,2.50
2022-11-25T19:15:08.905Z,2.83
2022-11-25T19:18:00.577Z,3.25
2022-11-25T19:20:47.692Z,3.17
2022-11-25T19:23:36.133Z,2.90
2022-11-25T19:26:27.518Z,3.70
2022-11-25T19:29:19.832Z,3.47
2022-11-25T19:32:14.163Z,3.42
2022-11-25T19:35:06.415Z,3.05
2022-11-25T19:37:53.578Z,3.78
2022-11-25T19:40:41.360Z,2.70
2022-11-25T19:43:28.531Z,3.62
2022-11-25T19:46:29.707Z,3.05
2022-11-25T19:49:19.850Z,2.65
2022-11-25T19:52:16.258Z,2.95
2022-11-25T19:55:03.692Z,3.45
2022-11-25T19:57:51.853Z,3.83
2022-11-25T20:00:39.138Z,2.60
2022-11-25T20:03:30.021Z,3.22
2022-11-25T20:06:19.479Z,3.60
2022-11-25T20:09:12.572Z,3.10
2022-11-25T20:12:06.995Z,3.28
2022-11-25T20:14:58.480Z,3.30
2022-11-25T20:17:49.121Z,3.62
2022-11-25T20:20:39.035Z,3.33
2022-11-25T20:23:30.610Z,3.70
2022-11-25T20:26:27.638Z,3.28
2022-11-25T20:29:17.521Z,3.00
2022-11-25T20:32:19.848Z,3.37
2022-11-25T20:35:08.521Z,3.65
2022-11-25T20:37:58.108Z,3.60
2022-11-25T20:40:47.274Z,3.05
2022-11-25T20:43:39.056Z,3.60
2022-11-25T20:46:29.931Z,3.10
2022-11-25T20:49:22.933Z,3.33
2022-11-25T20:52:16.554Z,3.97
2022-11-25T20:55:15.226Z,3.53
2022-11-25T20:58:02.443Z,3.90
2022-11-25T21:00:57.068Z,3.80
2022-11-25T21:03:46.109Z,3.35
2022-11-25T21:06:40.759Z,3.53
2022-11-25T21:09:34.595Z,3.70
2022-11-25T21:12:21.784Z,3.62
2022-11-25T21:15:14.923Z,3.45
2022-11-25T21:18:03.357Z,3.03
2022-11-25T21:20:52.142Z,3.35
2022-11-25T21:23:39.636Z,4.10
2022-11-25T21:26:27.760Z,3.87
2022-11-25T21:29:17.057Z,3.67
2022-11-25T21:32:04.049Z,3.62
2022-11-25T21:34:52.977Z,3.53
2022-11-25T21:37:40.784Z,3.47
2022-11-25T21:40:34.351Z,3.35
2022-11-25T21:43:25.346Z,3.70
2022-11-25T21:46:14.939Z,3.45
2022-11-25T21:49:01.696Z,4.15
2022-11-25T21:51:50.292Z,3.60
2022-11-25T21:54:37.607Z,4.37
2022-11-25T21:57:28.863Z,4.25
2022-11-25T22:00:22.332Z,3.80
2022-11-25T22:03:16.045Z,3.95
2022-11-25T22:06:02.592Z,4.37
2022-11-25T22:08:51.953Z,3.97
2022-11-25T22:11:40.611Z,4.35
2022-11-25T22:14:34.601Z,3.72
2022-11-25T22:17:22.104Z,4.35
2022-11-25T22:20:24.672Z,4.65
2022-11-25T22:23:16.689Z,3.95
2022-11-25T22:26:06.003Z,4.72
2022-11-25T22:28:54.193Z,3.35
2022-11-25T22:31:41.683Z,3.92
2022-11-25T22:34:28.506Z,3.28
2022-11-25T22:37:17.846Z,3.90
2022-11-25T22:40:05.192Z,3.12
2022-11-25T22:42:56.310Z,3.92
2022-11-25T22:45:43.166Z,4.15
2022-11-25T22:48:33.088Z,4.37
2022-11-25T22:51:25.823Z,4.50
2022-11-25T22:54:13.138Z,4.70
2022-11-25T22:57:00.433Z,3.62
2022-11-25T22:59:48.996Z,5.25
2022-11-25T23:02:37.040Z,5.12
2022-11-25T23:05:31.939Z,4.43
2022-11-25T23:08:22.304Z,5.55
2022-11-25T23:11:17.048Z,4.90
2022-11-25T23:14:03.883Z,4.70
2022-11-25T23:16:52.808Z,5.03
2022-11-25T23:19:39.826Z,4.75
2022-11-25T23:22:27.031Z,5.72
2022-11-25T23:25:15.606Z,4.75
2022-11-25T23:28:02.897Z,5.07
2022-11-25T23:30:53.017Z,4.05
2022-11-25T23:33:44.223Z,4.60
2022-11-25T23:36:39.914Z,4.97
2022-11-25T23:39:28.045Z,4.80
2022-11-25T23:42:18.236Z,4.85
2022-11-25T23:45:07.915Z,5.12
2022-11-25T23:47:56.982Z,4.25
2022-11-25T23:50:45.896Z,4.30
2022-11-25T23:53:34.598Z,3.87
2022-11-25T23:56:22.058Z,4.32
2022-11-25T23:59:13.698Z,4.45
